Time;durP1;ratioP1;P1;durP2;ratioP2;P2;SDS_P1;SDS_P2;PMS_P1;PMS_P2;Temp;Humidity;BMP_temperature;BMP_pressure;BME280_temperature;BME280_humidity;BME280_pressure;Samples;Min_cycle;Max_cycle;Signal;HPM_P1;HPM_P2
2023/02/27 00:01:45;;;;;;;0.10;0.10;;;;;;;4.36;60.62;103069.81;5093690;28;20032;-84
2023/02/27 00:04:11;;;;;;;0.10;0.10;;;;;;;4.38;60.13;103068.13;5093285;28;20413;-84
2023/02/27 00:06:37;;;;;;;0.10;0.10;;;;;;;4.40;60.68;103070.84;5093431;28;20040;-86
2023/02/27 00:09:04;;;;;;;0.10;0.10;;;;;;;4.42;60.60;103074.41;5074886;28;20051;-84
2023/02/27 00:11:30;;;;;;;0.10;0.10;;;;;;;4.44;60.47;103078.00;5091419;28;20052;-84
2023/02/27 00:13:56;;;;;;;0.10;0.10;;;;;;;4.46;60.74;103085.91;5093916;28;20028;-83
2023/02/27 00:16:22;;;;;;;0.10;0.10;;;;;;;4.49;60.65;103086.94;5090924;28;20182;-85
2023/02/27 00:18:49;;;;;;;0.10;0.10;;;;;;;4.51;60.93;103089.63;5086659;28;20107;-84
2023/02/27 00:21:15;;;;;;;0.10;0.10;;;;;;;4.53;60.32;103090.59;5085328;28;20060;-85
2023/02/27 00:23:41;;;;;;;0.10;0.10;;;;;;;4.54;60.56;103080.16;5088356;28;20498;-84
2023/02/27 00:26:07;;;;;;;0.10;0.10;;;;;;;4.56;60.38;103087.19;5097683;28;20093;-83
2023/02/27 00:28:33;;;;;;;0.10;0.10;;;;;;;4.57;60.16;103086.38;5091624;28;20085;-85
2023/02/27 00:30:59;;;;;;;0.20;0.20;;;;;;;4.57;60.78;103078.50;5098032;28;20051;-83
2023/02/27 00:33:25;;;;;;;0.10;0.10;;;;;;;4.59;60.32;103077.72;5095435;28;20064;-84
2023/02/27 00:36:00;;;;;;;0.10;0.10;;;;;;;4.65;60.08;103063.97;5085805;28;20016;-82
2023/02/27 00:38:27;;;;;;;1.50;1.40;;;;;;;4.60;60.42;103074.28;5097467;28;20028;-86
2023/02/27 00:40:53;;;;;;;0.10;0.10;;;;;;;4.61;60.54;103075.16;5094232;28;20032;-83
2023/02/27 00:43:20;;;;;;;0.10;0.10;;;;;;;4.61;60.58;103056.78;5095080;28;20034;-85
2023/02/27 00:45:47;;;;;;;0.10;0.10;;;;;;;4.60;60.55;103062.84;5098010;28;20055;-85
2023/02/27 00:48:14;;;;;;;0.10;0.10;;;;;;;4.57;60.71;103063.63;5117882;28;20023;-83
2023/02/27 00:50:40;;;;;;;0.10;0.10;;;;;;;4.53;60.34;103065.22;5114885;28;20027;-84
2023/02/27 00:53:09;;;;;;;0.17;0.17;;;;;;;4.49;60.33;103065.94;5087912;28;20108;-84
2023/02/27 00:55:35;;;;;;;0.10;0.10;;;;;;;4.47;60.62;103062.34;5092803;28;20121;-84
2023/02/27 00:58:01;;;;;;;0.10;0.10;;;;;;;4.44;59.94;103072.75;5089110;28;20084;-83
2023/02/27 01:00:27;;;;;;;0.10;0.10;;;;;;;4.42;60.25;103069.16;5089517;28;20024;-84
2023/02/27 01:02:54;;;;;;;0.10;0.10;;;;;;;4.42;60.26;103061.28;5082807;28;20033;-84
2023/02/27 01:05:20;;;;;;;0.10;0.10;;;;;;;4.40;60.05;103065.59;5101512;28;20020;-83
2023/02/27 01:07:46;;;;;;;0.15;0.15;;;;;;;4.39;59.85;103069.03;5115444;28;20020;-83
2023/02/27 01:10:12;;;;;;;0.10;0.10;;;;;;;4.38;60.43;103062.00;5116731;28;20024;-84
2023/02/27 01:12:39;;;;;;;0.20;0.20;;;;;;;4.36;60.29;103063.63;5092371;28;20513;-84
2023/02/27 01:15:06;;;;;;;0.10;0.10;;;;;;;4.32;60.21;103061.72;5094413;28;20048;-83
2023/02/27 01:17:33;;;;;;;0.10;0.10;;;;;;;4.26;59.86;103069.34;5105465;28;20129;-84
2023/02/27 01:19:59;;;;;;;0.10;0.10;;;;;;;4.19;59.93;103066.47;5099265;28;20027;-85
2023/02/27 01:22:25;;;;;;;0.10;0.10;;;;;;;4.12;60.53;103064.41;5097471;28;20426;-85
2023/02/27 01:24:51;;;;;;;0.20;0.20;;;;;;;4.06;60.19;103066.75;5098123;28;20028;-86
2023/02/27 01:27:17;;;;;;;0.10;0.10;;;;;;;3.98;60.24;103060.31;5100419;28;20020;-84
2023/02/27 01:29:44;;;;;;;0.20;0.20;;;;;;;3.87;60.44;103058.09;5099628;28;20024;-85
2023/02/27 01:32:10;;;;;;;0.10;0.10;;;;;;;3.79;59.94;103064.75;5101229;28;20059;-86
2023/02/27 01:34:39;;;;;;;0.10;0.10;;;;;;;3.67;60.38;103052.00;5099029;28;20101;-85
2023/02/27 01:37:05;;;;;;;0.20;0.20;;;;;;;3.56;60.63;103059.41;5102646;28;20032;-84
2023/02/27 01:39:31;;;;;;;0.20;0.20;;;;;;;3.46;60.18;103058.91;5097458;28;20036;-84
2023/02/27 01:41:58;;;;;;;0.10;0.10;;;;;;;3.37;60.73;103059.38;5097818;28;20027;-84
2023/02/27 01:44:27;;;;;;;0.10;0.10;;;;;;;3.30;60.87;103054.69;5095670;28;20032;-83
2023/02/27 01:46:54;;;;;;;0.10;0.10;;;;;;;3.19;61.05;103057.72;5094664;28;20028;-85
2023/02/27 01:49:26;;;;;;;0.10;0.10;;;;;;;3.16;61.30;103061.91;5094892;28;20089;-84
2023/02/27 01:52:00;;;;;;;0.20;0.20;;;;;;;3.10;61.19;103057.28;5092340;28;20052;-84
2023/02/27 01:54:28;;;;;;;0.10;0.10;;;;;;;3.06;62.06;103052.72;5099290;28;20043;-84
2023/02/27 01:56:55;;;;;;;0.10;0.10;;;;;;;3.05;62.13;103053.56;5099964;28;20028;-86
2023/02/27 01:59:21;;;;;;;0.10;0.10;;;;;;;3.05;62.54;103046.63;5094842;28;20023;-83
2023/02/27 02:01:48;;;;;;;0.10;0.10;;;;;;;3.06;61.80;103052.72;5099654;28;20071;-84
2023/02/27 02:04:35;;;;;;;0.10;0.10;;;;;;;3.12;62.27;103047.78;5091730;28;20138;-86
2023/02/27 02:07:06;;;;;;;0.17;0.17;;;;;;;3.06;62.17;103048.38;5095937;28;20035;-83
2023/02/27 02:09:47;;;;;;;0.17;0.17;;;;;;;3.05;62.29;103048.31;5103858;28;20024;-82
2023/02/27 02:12:15;;;;;;;0.13;0.13;;;;;;;3.02;61.79;103050.81;5103981;28;20028;-81
2023/02/27 02:14:41;;;;;;;0.20;0.20;;;;;;;2.97;61.94;103052.31;5097466;28;20012;-82
2023/02/27 02:17:47;;;;;;;0.10;0.10;;;;;;;2.97;62.25;103049.69;5096384;28;20069;-83
2023/02/27 02:20:47;;;;;;;0.20;0.20;;;;;;;2.88;61.79;103056.28;5101837;28;20106;-84
2023/02/27 02:23:53;;;;;;;0.10;0.10;;;;;;;2.83;61.65;103055.16;5100728;28;20036;-81
2023/02/27 02:29:33;;;;;;;0.10;0.10;;;;;;;2.68;62.26;103062.28;5103439;27;20721;-86
2023/02/27 02:35:11;;;;;;;0.10;0.10;;;;;;;2.57;62.03;103060.03;5097890;27;20392;-84
2023/02/27 02:43:14;;;;;;;0.20;0.20;;;;;;;2.36;62.49;103062.50;5011641;27;3667361;-82
2023/02/27 02:45:50;;;;;;;0.10;0.10;;;;;;;2.34;62.11;103060.63;5125204;28;20074;-84
2023/02/27 02:48:31;;;;;;;0.20;0.20;;;;;;;2.32;62.43;103062.25;5123212;28;20107;-82
2023/02/27 02:51:24;;;;;;;0.13;0.13;;;;;;;2.26;63.52;103061.13;5103269;28;20026;-84
2023/02/27 02:59:34;;;;;;;0.10;0.10;;;;;;;2.38;63.07;103066.09;5064029;27;20387;-82
2023/02/27 03:02:07;;;;;;;0.10;0.10;;;;;;;2.38;62.98;103062.56;5059573;27;20039;-83
2023/02/27 03:04:57;;;;;;;0.20;0.20;;;;;;;2.48;63.06;103066.53;5051207;27;20046;-83
2023/02/27 03:07:37;;;;;;;0.10;0.10;;;;;;;2.47;62.68;103064.75;5061093;27;20020;-84
2023/02/27 03:10:25;;;;;;;0.10;0.10;;;;;;;2.49;63.10;103069.22;5059362;27;20394;-85
2023/02/27 03:13:01;;;;;;;0.15;0.15;;;;;;;2.45;62.69;103069.91;5057050;27;20251;-84
2023/02/27 03:15:35;;;;;;;0.10;0.10;;;;;;;2.44;63.05;103070.72;5059543;27;20030;-84
2023/02/27 03:18:19;;;;;;;0.10;0.10;;;;;;;2.45;63.20;103067.28;5066329;27;20045;-84
2023/02/27 03:20:52;;;;;;;0.20;0.20;;;;;;;2.40;62.76;103063.53;5064590;27;20363;-86
2023/02/27 03:23:34;;;;;;;0.20;0.20;;;;;;;2.39;62.66;103066.97;5040998;28;20108;-85
2023/02/27 03:26:02;;;;;;;0.20;0.20;;;;;;;2.33;62.72;103071.91;5058859;27;20039;-85
2023/02/27 03:28:34;;;;;;;0.20;0.20;;;;;;;2.29;62.75;103069.97;5051014;27;20025;-82
2023/02/27 03:34:02;;;;;;;0.20;0.20;;;;;;;2.25;62.81;103059.34;5101622;27;1197048;-84
2023/02/27 03:39:31;;;;;;;0.10;0.10;;;;;;;2.13;63.41;103056.13;5025745;28;20336;-85
2023/02/27 03:47:22;;;;;;;0.20;0.20;;;;;;;1.99;63.78;103059.75;5054129;28;20388;-83
2023/02/27 03:49:51;;;;;;;0.15;0.15;;;;;;;1.96;63.72;103051.72;5041187;28;20029;-83
2023/02/27 03:52:20;;;;;;;0.10;0.10;;;;;;;1.96;64.15;103059.56;5041751;28;20052;-82
2023/02/27 03:54:58;;;;;;;0.10;0.10;;;;;;;1.98;64.18;103058.88;5032830;28;20108;-83
2023/02/27 03:57:25;;;;;;;0.10;0.10;;;;;;;1.90;64.02;103063.69;5042759;28;20021;-83
2023/02/27 03:59:52;;;;;;;0.20;0.20;;;;;;;1.87;64.02;103067.84;5037141;28;20135;-84
2023/02/27 04:02:19;;;;;;;0.10;0.10;;;;;;;1.83;64.06;103069.41;5045058;28;20071;-83
2023/02/27 04:04:45;;;;;;;0.10;0.10;;;;;;;1.80;63.59;103066.63;5049960;28;20021;-84
2023/02/27 04:07:23;;;;;;;0.15;0.15;;;;;;;1.80;63.29;103077.09;5047496;28;20128;-82
2023/02/27 04:10:13;;;;;;;0.10;0.10;;;;;;;1.79;63.61;103077.91;5042696;28;20029;-82
2023/02/27 04:12:57;;;;;;;0.10;0.10;;;;;;;1.78;63.46;103081.34;5043171;28;20032;-81
2023/02/27 04:15:42;;;;;;;0.17;0.17;;;;;;;1.76;63.77;103073.41;5039824;28;20029;-83
2023/02/27 04:20:55;;;;;;;0.10;0.10;;;;;;;1.71;63.63;103074.00;5078755;27;20527;-82
2023/02/27 04:23:36;;;;;;;0.20;0.20;;;;;;;1.69;64.32;103070.41;5075557;28;20024;-82
2023/02/27 04:26:28;;;;;;;0.10;0.10;;;;;;;1.72;63.80;103078.41;5071306;28;20036;-83
2023/02/27 04:32:05;;;;;;;0.20;0.20;;;;;;;1.64;64.07;103083.22;5135456;27;20390;-81
2023/02/27 04:37:21;;;;;;;0.52;0.52;;;;;;;1.60;63.97;103092.63;5102137;27;20755;-83
2023/02/27 04:40:09;;;;;;;0.10;0.10;;;;;;;1.56;64.62;103093.28;5090647;28;20043;-81
2023/02/27 04:42:40;;;;;;;0.17;0.17;;;;;;;1.54;64.42;103094.00;5080328;28;20035;-82
2023/02/27 04:45:12;;;;;;;0.10;0.10;;;;;;;1.53;65.24;103095.72;5089735;28;20016;-82
2023/02/27 04:47:46;;;;;;;0.20;0.20;;;;;;;1.58;64.66;103099.50;5100575;28;20028;-83
2023/02/27 04:50:20;;;;;;;0.20;0.20;;;;;;;1.60;64.48;103102.19;5090761;28;20122;-83
2023/02/27 04:52:56;;;;;;;0.20;0.20;;;;;;;1.60;64.96;103100.47;5098753;28;20024;-82
2023/02/27 04:55:29;;;;;;;0.20;0.20;;;;;;;1.59;64.64;103106.50;5117356;28;20448;-81
2023/02/27 04:58:06;;;;;;;0.20;0.20;;;;;;;1.58;64.85;103103.81;5096163;28;20024;-83
2023/02/27 05:00:35;;;;;;;0.20;0.20;;;;;;;1.57;65.01;103115.06;5096997;28;20028;-82
2023/02/27 05:03:14;;;;;;;0.20;0.20;;;;;;;1.60;64.51;103110.91;5119340;28;20038;-81
2023/02/27 05:05:43;;;;;;;0.20;0.20;;;;;;;1.56;65.35;103115.91;5100606;28;20013;-83
2023/02/27 05:08:17;;;;;;;0.20;0.20;;;;;;;1.56;65.26;103119.41;5101243;28;20024;-81
2023/02/27 05:11:08;;;;;;;0.20;0.20;;;;;;;1.60;64.93;103115.25;5091974;28;20036;-83
2023/02/27 05:13:54;;;;;;;0.10;0.10;;;;;;;1.63;65.40;103110.16;5083173;28;20519;-82
2023/02/27 05:16:31;;;;;;;0.20;0.20;;;;;;;1.63;65.31;103115.41;5091207;28;20040;-82
2023/02/27 05:19:00;;;;;;;0.10;0.10;;;;;;;1.64;65.36;103103.25;5090408;28;20220;-83
2023/02/27 05:21:35;;;;;;;0.30;0.30;;;;;;;1.68;65.48;103116.53;5090705;28;20036;-83
2023/02/27 05:24:11;;;;;;;2.03;1.92;;;;;;;1.72;65.41;103117.59;5090796;28;20031;-83
2023/02/27 05:27:05;;;;;;;0.20;0.20;;;;;;;1.79;65.19;103117.13;5091447;28;20020;-82
2023/02/27 05:29:51;;;;;;;0.20;0.20;;;;;;;1.75;65.31;103121.28;5091409;28;20481;-83
2023/02/27 05:35:04;;;;;;;0.10;0.10;;;;;;;1.80;65.26;103121.53;5085353;27;1883655;-84
2023/02/27 05:37:36;;;;;;;0.20;0.20;;;;;;;1.80;65.36;103116.31;5122953;28;20114;-84
2023/02/27 05:40:07;;;;;;;;;;;;;;;1.94;64.85;103119.63;5128981;28;20077;-80
2023/02/27 05:42:42;;;;;;;0.20;0.20;;;;;;;1.83;65.06;103110.34;5118792;28;20002;-83
2023/02/27 05:45:18;;;;;;;0.20;0.20;;;;;;;1.82;65.05;103109.44;5110374;28;20383;-83
2023/02/27 05:47:51;;;;;;;0.10;0.10;;;;;;;1.81;64.89;103109.34;5110337;28;20463;-82
2023/02/27 05:50:23;;;;;;;0.20;0.20;;;;;;;1.80;65.30;103118.03;5097115;28;20039;-83
2023/02/27 05:52:52;;;;;;;0.15;0.15;;;;;;;1.77;64.69;103121.38;5112056;28;20477;-83
2023/02/27 05:55:28;;;;;;;0.13;0.13;;;;;;;1.76;64.85;103125.69;5110969;28;20039;-83
2023/02/27 05:58:18;;;;;;;0.20;0.20;;;;;;;1.82;64.85;103129.44;5111954;28;20023;-83
2023/02/27 06:00:52;;;;;;;0.10;0.10;;;;;;;1.78;65.20;103128.38;5110909;28;20034;-83
2023/02/27 06:03:19;;;;;;;0.10;0.10;;;;;;;1.75;65.30;103128.22;5111547;28;20032;-84
2023/02/27 06:05:46;;;;;;;0.20;0.20;;;;;;;1.77;65.10;103129.22;5112183;28;20039;-84
2023/02/27 06:08:12;;;;;;;0.10;0.10;;;;;;;1.78;65.85;103129.31;5117811;28;20024;-81
2023/02/27 06:10:38;;;;;;;0.10;0.10;;;;;;;1.84;65.32;103133.06;5114096;28;20016;-81
2023/02/27 06:13:04;;;;;;;0.20;0.20;;;;;;;1.87;65.71;103136.72;5110381;28;20043;-81
2023/02/27 06:15:30;;;;;;;0.20;0.20;;;;;;;1.89;65.55;103137.69;5115013;28;20019;-82
2023/02/27 06:17:57;;;;;;;0.20;0.20;;;;;;;1.90;65.74;103144.72;5124263;28;20028;-81
2023/02/27 06:20:23;;;;;;;0.10;0.10;;;;;;;1.96;65.55;103148.47;5128772;28;20046;-82
2023/02/27 06:22:49;;;;;;;0.20;0.20;;;;;;;1.97;65.46;103145.03;5125795;28;20507;-81
2023/02/27 06:25:15;;;;;;;0.10;0.10;;;;;;;1.99;65.30;103146.03;5117360;28;20493;-82
2023/02/27 06:27:41;;;;;;;0.20;0.20;;;;;;;2.01;65.39;103150.53;5110459;28;20469;-81
2023/02/27 06:30:08;;;;;;;0.15;0.15;;;;;;;2.03;65.33;103161.97;5110923;28;20032;-82
2023/02/27 06:32:34;;;;;;;0.13;0.13;;;;;;;2.01;65.91;103157.47;5111906;28;20366;-82
2023/02/27 06:35:01;;;;;;;0.20;0.20;;;;;;;2.02;65.63;103159.25;5111309;28;20682;-83
2023/02/27 06:37:27;;;;;;;0.17;0.17;;;;;;;2.01;66.06;103173.19;5111205;28;20043;-82
2023/02/27 06:39:53;;;;;;;0.10;0.10;;;;;;;2.03;65.56;103171.53;5111728;28;20028;-81
2023/02/27 06:42:19;;;;;;;0.10;0.10;;;;;;;2.04;65.68;103178.56;5109936;28;20519;-83
2023/02/27 06:44:45;;;;;;;0.10;0.10;;;;;;;2.07;66.08;103178.72;5089934;28;20032;-81
2023/02/27 06:47:11;;;;;;;0.10;0.10;;;;;;;2.12;66.00;103182.47;5097521;28;20028;-81
2023/02/27 06:49:37;;;;;;;0.10;0.10;;;;;;;2.17;65.75;103187.94;5096769;28;20489;-82
2023/02/27 06:52:04;;;;;;;2.15;2.05;;;;;;;2.21;65.74;103188.19;5096254;28;20500;-82
2023/02/27 06:54:30;;;;;;;0.10;0.10;;;;;;;2.23;65.90;103181.31;5095184;28;20356;-82
2023/02/27 06:56:56;;;;;;;0.10;0.10;;;;;;;2.23;65.51;103186.56;5095370;28;20072;-82
2023/02/27 06:59:22;;;;;;;0.20;0.20;;;;;;;2.23;65.54;103183.94;5096709;28;20043;-83
2023/02/27 07:01:48;;;;;;;0.20;0.20;;;;;;;2.21;65.31;103188.19;5096220;28;20035;-83
2023/02/27 07:04:15;;;;;;;0.10;0.10;;;;;;;2.18;65.58;103192.34;5095775;28;20484;-83
2023/02/27 07:06:41;;;;;;;0.20;0.20;;;;;;;2.16;65.65;103194.88;5096493;28;20497;-83
2023/02/27 07:09:08;;;;;;;0.10;0.10;;;;;;;2.14;65.20;103196.50;5096299;28;20043;-81
2023/02/27 07:11:34;;;;;;;0.20;0.20;;;;;;;2.12;65.33;103194.63;5096752;28;20061;-81
2023/02/27 07:14:00;;;;;;;0.10;0.10;;;;;;;2.11;65.08;103198.97;5094957;28;20078;-83
2023/02/27 07:16:26;;;;;;;0.20;0.20;;;;;;;2.10;64.85;103210.25;5091287;28;20063;-83
2023/02/27 07:18:52;;;;;;;0.20;0.20;;;;;;;2.09;65.27;103213.69;5095931;28;20036;-82
2023/02/27 07:21:18;;;;;;;0.22;0.22;;;;;;;2.08;65.13;103212.81;5096295;28;20076;-82
2023/02/27 07:23:44;;;;;;;0.10;0.10;;;;;;;2.09;65.33;103218.91;5099235;28;20501;-81
2023/02/27 07:26:10;;;;;;;0.10;0.10;;;;;;;2.09;65.36;103213.69;5098944;28;20039;-80
2023/02/27 07:28:36;;;;;;;0.20;0.20;;;;;;;2.09;65.32;103214.59;5100210;28;20038;-82
2023/02/27 07:31:02;;;;;;;0.10;0.10;;;;;;;2.10;65.73;103215.50;5098001;28;20081;-83
2023/02/27 07:33:30;;;;;;;0.10;0.10;;;;;;;2.12;65.50;103224.31;5095913;28;20028;-82
2023/02/27 07:35:56;;;;;;;0.20;0.20;;;;;;;2.12;65.83;103219.09;5097060;28;20096;-82
2023/02/27 07:38:22;;;;;;;0.10;0.10;;;;;;;2.14;65.88;103220.06;5098449;28;20031;-81
2023/02/27 07:40:49;;;;;;;0.10;0.10;;;;;;;2.18;65.85;103218.50;5115177;28;20054;-81
2023/02/27 07:43:15;;;;;;;0.20;0.20;;;;;;;2.20;65.97;103219.50;5114410;28;20037;-83
2023/02/27 07:45:41;;;;;;;0.20;0.20;;;;;;;2.24;66.42;103214.50;5113293;28;20127;-82
2023/02/27 07:48:07;;;;;;;0.10;0.10;;;;;;;2.30;66.07;103218.25;5092930;28;20036;-83
2023/02/27 07:50:33;;;;;;;0.10;0.10;;;;;;;2.31;66.03;103217.44;5089929;28;20418;-83
2023/02/27 07:52:59;;;;;;;0.20;0.20;;;;;;;2.34;66.56;103217.59;5087062;28;20035;-82
2023/02/27 07:55:25;;;;;;;0.20;0.20;;;;;;;2.37;66.40;103215.16;5081080;28;20043;-82
2023/02/27 07:57:52;;;;;;;0.10;0.10;;;;;;;2.42;66.54;103209.31;5084995;28;20048;-82
2023/02/27 08:00:18;;;;;;;0.20;0.20;;;;;;;2.47;66.78;103214.81;5092451;28;20056;-82
2023/02/27 08:02:44;;;;;;;0.20;0.20;;;;;;;2.53;66.01;103214.22;5076076;28;20064;-82
2023/02/27 08:05:10;;;;;;;0.15;0.15;;;;;;;2.59;66.38;103207.59;5084993;28;20068;-81
2023/02/27 08:07:36;;;;;;;0.10;0.10;;;;;;;2.67;66.66;103214.94;5081819;28;20050;-80
2023/02/27 08:10:04;;;;;;;0.10;0.10;;;;;;;2.75;66.12;103209.28;5083131;28;20035;-82
2023/02/27 08:12:30;;;;;;;0.10;0.10;;;;;;;2.80;66.04;103212.09;5081996;28;20071;-80
2023/02/27 08:14:56;;;;;;;0.10;0.10;;;;;;;2.87;65.93;103214.22;5079245;28;20516;-81
2023/02/27 08:17:22;;;;;;;0.20;0.20;;;;;;;2.94;65.78;103215.44;5082383;28;20059;-82
2023/02/27 08:19:49;;;;;;;0.13;0.13;;;;;;;3.02;65.87;103226.28;5079495;28;20489;-82
2023/02/27 08:22:15;;;;;;;0.20;0.20;;;;;;;3.07;65.62;103227.41;5074781;28;20092;-83
2023/02/27 08:24:41;;;;;;;0.13;0.13;;;;;;;3.14;65.77;103224.28;5075060;28;20023;-83
2023/02/27 08:27:07;;;;;;;0.20;0.20;;;;;;;3.21;65.87;103223.72;5077232;28;20033;-82
2023/02/27 08:29:33;;;;;;;0.80;0.73;;;;;;;3.28;65.71;103226.63;5081052;28;20024;-82
2023/02/27 08:32:00;;;;;;;0.20;0.20;;;;;;;3.34;65.38;103237.41;5075555;28;20099;-81
2023/02/27 08:34:29;;;;;;;0.10;0.10;;;;;;;3.40;65.39;103235.09;5076424;28;20163;-80
2023/02/27 08:36:55;;;;;;;0.10;0.10;;;;;;;3.49;65.25;103240.81;5079124;28;20471;-80
2023/02/27 08:39:23;;;;;;;0.20;0.20;;;;;;;3.54;65.82;103244.53;5083641;28;20401;-82
2023/02/27 08:41:51;;;;;;;0.10;0.10;;;;;;;3.63;65.26;103245.81;5077785;28;20527;-80
2023/02/27 08:44:18;;;;;;;0.10;0.10;;;;;;;3.73;64.88;103253.28;5080030;28;20024;-80
2023/02/27 08:46:44;;;;;;;0.10;0.10;;;;;;;3.84;64.76;103252.06;5075955;28;20115;-81
2023/02/27 08:49:11;;;;;;;0.10;0.10;;;;;;;3.91;64.64;103247.09;5083223;28;20039;-80
2023/02/27 08:51:39;;;;;;;0.10;0.10;;;;;;;4.00;64.32;103253.66;5085478;28;20036;-80
2023/02/27 08:54:05;;;;;;;0.10;0.10;;;;;;;4.08;64.64;103248.75;5090194;28;20028;-80
2023/02/27 08:56:33;;;;;;;0.10;0.10;;;;;;;4.16;64.25;103249.09;5091404;28;20027;-79
2023/02/27 08:59:00;;;;;;;0.10;0.10;;;;;;;4.26;64.46;103250.41;5103949;28;20016;-80
2023/02/27 09:01:31;;;;;;;0.10;0.10;;;;;;;4.34;64.03;103249.06;5106458;28;20242;-81
2023/02/27 09:03:57;;;;;;;0.10;0.10;;;;;;;4.41;63.98;103248.50;5103578;28;20019;-80
2023/02/27 09:06:24;;;;;;;0.10;0.10;;;;;;;4.50;63.28;103245.38;5106090;28;20043;-82
2023/02/27 09:08:50;;;;;;;0.10;0.10;;;;;;;4.60;63.45;103252.81;5095755;28;20020;-81
2023/02/27 09:11:16;;;;;;;0.17;0.17;;;;;;;4.67;63.03;103252.25;5094881;28;20056;-82
2023/02/27 09:13:42;;;;;;;0.10;0.10;;;;;;;4.77;63.12;103257.91;5094228;28;20039;-83
2023/02/27 09:16:09;;;;;;;1.52;1.48;;;;;;;4.86;62.78;103253.06;5094620;28;20039;-82
2023/02/27 09:18:35;;;;;;;0.10;0.10;;;;;;;4.97;62.72;103264.00;5092949;28;20031;-82
2023/02/27 09:21:02;;;;;;;0.47;0.47;;;;;;;5.07;62.55;103263.56;5093689;28;20059;-82
2023/02/27 09:23:28;;;;;;;0.10;0.10;;;;;;;5.16;62.20;103261.31;5094629;28;20058;-81
2023/02/27 09:25:54;;;;;;;0.17;0.17;;;;;;;5.28;61.82;103265.28;5093681;28;20020;-80
2023/02/27 09:28:20;;;;;;;0.10;0.10;;;;;;;5.39;61.70;103269.22;5093565;28;20370;-80
2023/02/27 09:30:46;;;;;;;0.82;0.82;;;;;;;5.48;60.92;103268.72;5093071;28;20489;-83
2023/02/27 09:33:14;;;;;;;0.22;0.22;;;;;;;5.61;61.25;103264.84;5075069;28;20032;-81
2023/02/27 09:35:40;;;;;;;0.10;0.10;;;;;;;5.73;60.28;103267.97;5093071;28;20064;-81
2023/02/27 09:38:06;;;;;;;0.10;0.10;;;;;;;5.85;60.55;103269.28;5093473;28;20024;-81
2023/02/27 09:40:39;;;;;;;0.10;0.10;;;;;;;5.97;60.00;103264.50;5095109;28;20028;-81
2023/02/27 09:43:29;;;;;;;1.15;1.00;;;;;;;6.08;59.81;103263.19;5093216;28;20020;-82
2023/02/27 09:45:57;;;;;;;0.10;0.10;;;;;;;6.13;59.26;103264.25;5093624;28;20077;-80
2023/02/27 09:48:33;;;;;;;0.10;0.10;;;;;;;6.26;58.62;103257.69;5093586;28;20020;-81
2023/02/27 09:51:00;;;;;;;0.17;0.17;;;;;;;6.36;59.20;103268.59;5084341;28;20055;-82
2023/02/27 09:53:32;;;;;;;0.10;0.10;;;;;;;6.49;59.06;103262.91;5089821;28;20031;-80
2023/02/27 09:56:38;;;;;;;0.10;0.10;;;;;;;6.69;59.12;103260.09;5098319;28;20059;-81
2023/02/27 09:59:31;;;;;;;0.10;0.10;;;;;;;6.77;58.87;103264.78;5087125;28;20032;-81
2023/02/27 10:10:32;;;;;;;0.10;0.10;;;;;;;7.23;58.16;103261.94;5062176;28;20471;-82
2023/02/27 10:13:28;;;;;;;0.10;0.10;;;;;;;7.33;55.86;103261.38;5063371;28;20029;-81
2023/02/27 10:15:56;;;;;;;0.10;0.10;;;;;;;7.35;56.47;103256.13;5063444;28;20025;-79
2023/02/27 10:18:27;;;;;;;0.10;0.10;;;;;;;7.41;52.66;103262.53;5081136;28;20046;-83
2023/02/27 10:20:57;;;;;;;0.10;0.10;;;;;;;7.54;52.75;103263.81;5064072;28;20032;-81
2023/02/27 10:26:29;;;;;;;0.10;0.10;;;;;;;7.76;53.36;103252.19;5119549;27;20927;-83
2023/02/27 10:28:57;;;;;;;0.17;0.17;;;;;;;7.80;51.64;103258.44;5112877;28;20031;-81
2023/02/27 10:31:30;;;;;;;0.10;0.10;;;;;;;7.87;53.36;103255.13;5119748;28;20035;-79
2023/02/27 10:33:58;;;;;;;0.10;0.10;;;;;;;7.80;52.98;103257.53;5118841;28;20027;-81
2023/02/27 10:36:24;;;;;;;0.10;0.10;;;;;;;7.80;54.27;103255.81;5121220;28;20055;-83
2023/02/27 10:38:55;;;;;;;0.20;0.20;;;;;;;7.86;52.21;103247.16;5101731;28;20073;-81
2023/02/27 10:41:23;;;;;;;0.10;0.10;;;;;;;7.95;53.79;103255.38;5104406;28;20031;-83
2023/02/27 10:43:55;;;;;;;0.10;0.10;;;;;;;8.01;51.00;103252.91;5103419;28;20062;-80
2023/02/27 10:46:26;;;;;;;0.10;0.10;;;;;;;8.08;51.32;103249.56;5102379;28;20065;-81
2023/02/27 10:48:53;;;;;;;0.10;0.10;;;;;;;8.15;51.50;103247.13;5103692;28;20298;-83
2023/02/27 10:56:52;;;;;;;0.10;0.10;;;;;;;8.35;48.72;103237.09;5128540;27;1183312;-82
2023/02/27 10:59:28;;;;;;;0.20;0.20;;;;;;;8.49;48.74;103237.56;5140600;27;20030;-82
2023/02/27 11:01:58;;;;;;;0.10;0.10;;;;;;;8.63;48.36;103235.28;5141067;27;20042;-83
2023/02/27 11:07:08;;;;;;;0.10;0.10;;;;;;;8.83;47.82;103227.84;5064612;28;20397;-81
2023/02/27 11:09:35;;;;;;;0.10;0.10;;;;;;;8.82;49.66;103224.34;5064996;28;20517;-83
2023/02/27 11:12:29;;;;;;;0.10;0.10;;;;;;;8.95;48.55;103217.59;5063158;28;20037;-83
2023/02/27 11:14:59;;;;;;;0.10;0.10;;;;;;;8.91;45.90;103215.75;5040081;28;20108;-83
2023/02/27 11:17:31;;;;;;;0.10;0.10;;;;;;;9.01;48.26;103223.03;5041065;28;20116;-82
2023/02/27 11:19:59;;;;;;;0.10;0.10;;;;;;;9.02;47.81;103219.53;5047130;28;20033;-84
2023/02/27 11:22:28;;;;;;;0.10;0.10;;;;;;;9.23;46.73;103207.69;5038691;28;20108;-83
2023/02/27 11:25:22;;;;;;;0.20;0.20;;;;;;;9.62;46.98;103203.25;5041703;28;20070;-84
2023/02/27 11:27:50;;;;;;;0.10;0.10;;;;;;;9.64;44.85;103199.78;5062341;28;20025;-80
2023/02/27 11:33:00;;;;;;;0.10;0.10;;;;;;;9.37;42.70;103193.03;5103348;27;1170216;-84
2023/02/27 11:38:06;;;;;;;0.20;0.20;;;;;;;9.53;44.60;103180.13;5060774;28;20135;-83
2023/02/27 11:40:38;;;;;;;0.10;0.10;;;;;;;9.79;43.55;103185.09;5068996;28;20032;-84
2023/02/27 11:43:15;;;;;;;0.20;0.20;;;;;;;10.09;44.74;103176.88;5067775;28;20487;-84
2023/02/27 11:45:42;;;;;;;0.10;0.10;;;;;;;10.15;44.12;103181.41;5068638;28;20020;-83
2023/02/27 11:48:19;;;;;;;1.17;1.15;;;;;;;10.23;45.13;103177.16;5067917;28;20024;-85
2023/02/27 11:51:25;;;;;;;0.10;0.10;;;;;;;10.06;42.24;103178.59;5061235;28;20028;-85
2023/02/27 11:54:17;;;;;;;0.10;0.10;;;;;;;9.76;43.50;103172.69;5073445;28;20029;-84
2023/02/27 11:56:57;;;;;;;0.10;0.10;;;;;;;9.47;43.74;103180.00;5075646;28;20046;-84
2023/02/27 12:04:54;;;;;;;1.13;1.08;;;;;;;8.84;44.98;103182.06;5111582;27;20335;-83
2023/02/27 12:07:29;;;;;;;0.10;0.10;;;;;;;8.84;45.66;103177.66;5109098;28;20115;-82
2023/02/27 12:10:17;;;;;;;0.20;0.20;;;;;;;9.10;44.46;103164.19;5111614;28;20031;-84
2023/02/27 12:13:10;;;;;;;0.10;0.10;;;;;;;9.35;43.89;103167.41;5102021;28;20723;-85
2023/02/27 12:18:38;;;;;;;0.10;0.10;;;;;;;9.71;42.49;103154.06;5124284;27;1199030;-84
2023/02/27 12:21:12;;;;;;;0.10;0.10;;;;;;;9.94;42.85;103155.38;5147628;27;20030;-82
2023/02/27 12:24:08;;;;;;;0.10;0.10;;;;;;;10.19;42.91;103148.78;5140557;27;20490;-84
2023/02/27 12:26:38;;;;;;;0.10;0.10;;;;;;;10.25;41.83;103156.88;5126352;27;20039;-84
2023/02/27 12:31:56;;;;;;;0.10;0.10;;;;;;;10.33;39.86;103149.97;5105532;27;20396;-86
2023/02/27 12:37:02;;;;;;;0.10;0.10;;;;;;;10.30;41.04;103139.28;5085390;27;1884730;-84
2023/02/27 12:39:29;;;;;;;0.10;0.10;;;;;;;10.27;39.28;103136.59;5116786;28;20028;-84
2023/02/27 12:42:29;;;;;;;0.10;0.10;;;;;;;10.41;40.39;103136.00;5129563;28;20027;-85
2023/02/27 12:48:33;;;;;;;0.10;0.10;;;;;;;10.65;39.52;103125.81;5111059;27;20391;-85
2023/02/27 12:51:25;;;;;;;0.10;0.10;;;;;;;10.81;38.54;103128.69;5104161;27;20044;-85
2023/02/27 12:54:05;;;;;;;0.10;0.10;;;;;;;10.85;37.45;103125.22;5108212;28;20437;-85
2023/02/27 12:57:11;;;;;;;0.10;0.10;;;;;;;10.99;39.59;103121.03;5111268;28;20100;-84
2023/02/27 13:02:38;;;;;;;0.10;0.10;;;;;;;11.14;37.35;103123.00;5013990;27;4163154;-84
2023/02/27 13:05:21;;;;;;;0.10;0.10;;;;;;;11.27;38.80;103116.09;5125243;28;20035;-84
2023/02/27 13:10:52;;;;;;;0.10;0.10;;;;;;;11.24;39.29;103137.31;5172789;27;20878;-84
2023/02/27 13:15:59;;;;;;;0.20;0.20;;;;;;;10.77;39.87;103132.19;5070829;27;1930594;-84
2023/02/27 13:18:50;;;;;;;0.13;0.13;;;;;;;10.67;39.73;103129.34;5110637;28;20038;-84
2023/02/27 13:24:14;;;;;;;0.10;0.10;;;;;;;10.56;40.17;103123.00;5110376;27;20380;-85
2023/02/27 13:26:45;;;;;;;0.10;0.10;;;;;;;10.36;39.28;103118.22;5110497;28;20036;-83